createdAt,value
2023-06-19T00:00:07.322Z,1011.07
2023-06-19T00:00:23.418Z,1011.05
2023-06-19T00:00:39.185Z,1011.07
2023-06-19T00:00:55.361Z,1011.06
2023-06-19T00:01:11.532Z,1011.06
2023-06-19T00:01:27.636Z,1011.08
2023-06-19T00:01:43.799Z,1011.08
2023-06-19T00:01:59.956Z,1011.08
2023-06-19T00:02:16.207Z,1011.07
2023-06-19T00:02:32.240Z,1011.08
2023-06-19T00:02:48.362Z,1011.08
2023-06-19T00:03:04.550Z,1011.1
2023-06-19T00:03:20.648Z,1011.05
2023-06-19T00:03:36.822Z,1011.08
2023-06-19T00:03:52.993Z,1011.08
2023-06-19T00:04:09.103Z,1011.09
2023-06-19T00:04:25.377Z,1011.07
2023-06-19T00:04:41.364Z,1011.09
2023-06-19T00:04:57.537Z,1011.09
2023-06-19T00:05:13.666Z,1011.07
2023-06-19T00:05:29.797Z,1011.09
2023-06-19T00:05:45.975Z,1011.11
2023-06-19T00:06:02.141Z,1011.14
2023-06-19T00:06:18.250Z,1011.08
2023-06-19T00:06:34.396Z,1011.1
2023-06-19T00:06:50.566Z,1011.11
2023-06-19T00:07:06.690Z,1011.08
2023-06-19T00:07:22.756Z,1011.11
2023-06-19T00:07:38.974Z,1011.1
2023-06-19T00:07:55.122Z,1011.09
2023-06-19T00:08:11.259Z,1011.14
2023-06-19T00:08:27.442Z,1011.14
2023-06-19T00:08:43.552Z,1011.08
2023-06-19T00:08:59.690Z,1011.11
2023-06-19T00:09:15.861Z,1011.09
2023-06-19T00:09:31.991Z,1011.12
2023-06-19T00:09:48.153Z,1011.11
2023-06-19T00:10:04.309Z,1011.06
2023-06-19T00:10:20.484Z,1011.11
2023-06-19T00:10:36.608Z,1011.1
2023-06-19T00:10:52.717Z,1011.08
2023-06-19T00:11:08.874Z,1011.09
2023-06-19T00:11:25.057Z,1011.11
2023-06-19T00:11:41.154Z,1011.13
2023-06-19T00:11:57.325Z,1011.1
2023-06-19T00:12:13.451Z,1011.07
2023-06-19T00:12:29.599Z,1011.09
2023-06-19T00:12:45.742Z,1011.09
2023-06-19T00:13:01.872Z,1011.09
2023-06-19T00:13:18.060Z,1011.1
2023-06-19T00:13:34.215Z,1011.1
2023-06-19T00:13:50.316Z,1011.05
2023-06-19T00:14:06.479Z,1011.07
2023-06-19T00:14:22.633Z,1011.06
2023-06-19T00:14:38.795Z,1011.09
2023-06-19T00:14:54.925Z,1011.09
2023-06-19T00:15:11.129Z,1011.1
2023-06-19T00:15:27.221Z,1011.08
2023-06-19T00:15:43.353Z,1011.06
2023-06-19T00:15:59.506Z,1011.08
2023-06-19T00:16:15.732Z,1011.04
2023-06-19T00:16:31.791Z,1011.08
2023-06-19T00:16:47.930Z,1011.09
2023-06-19T00:17:04.073Z,1011.11
2023-06-19T00:17:20.296Z,1011.04
2023-06-19T00:17:36.372Z,1011.06
2023-06-19T00:17:52.638Z,1011.05
2023-06-19T00:18:08.720Z,1011.05
2023-06-19T00:18:24.787Z,1011.08
2023-06-19T00:18:41.268Z,1011.08
2023-06-19T00:18:57.121Z,1011.09
2023-06-19T00:19:13.224Z,1011.06
2023-06-19T00:19:29.391Z,1011.13
2023-06-19T00:19:45.571Z,1011.12
2023-06-19T00:20:01.693Z,1011.1
2023-06-19T00:20:17.817Z,1011.11
2023-06-19T00:20:33.977Z,1011.1
2023-06-19T00:20:50.105Z,1011.1
2023-06-19T00:21:06.249Z,1011.11
2023-06-19T00:21:22.399Z,1011.1
2023-06-19T00:21:38.536Z,1011.14
2023-06-19T00:21:54.685Z,1011.12
2023-06-19T00:22:10.838Z,1011.13
2023-06-19T00:22:26.969Z,1011.17
2023-06-19T00:22:43.150Z,1011.15
2023-06-19T00:22:59.264Z,1011.15
2023-06-19T00:23:15.413Z,1011.1
2023-06-19T00:23:31.595Z,1011.1
2023-06-19T00:23:47.698Z,1011.14
2023-06-19T00:24:03.946Z,1011.14
2023-06-19T00:24:20.045Z,1011.13
2023-06-19T00:24:36.280Z,1011.12
2023-06-19T00:24:52.298Z,1011.15
2023-06-19T00:25:08.456Z,1011.14
2023-06-19T00:25:24.586Z,1011.11
2023-06-19T00:25:40.726Z,1011.16
2023-06-19T00:25:56.880Z,1011.14
2023-06-19T00:26:13.007Z,1011.1
2023-06-19T00:26:29.176Z,1011.11
2023-06-19T00:26:45.324Z,1011.11
2023-06-19T00:27:01.446Z,1011.14
2023-06-19T00:27:17.606Z,1011.11
2023-06-19T00:27:33.761Z,1011.11
2023-06-19T00:27:49.896Z,1011.14
2023-06-19T00:28:06.027Z,1011.13
2023-06-19T00:28:22.193Z,1011.11
2023-06-19T00:28:38.362Z,1011.11
2023-06-19T00:28:54.489Z,1011.18
2023-06-19T00:29:10.665Z,1011.16
2023-06-19T00:29:26.770Z,1011.16
2023-06-19T00:29:42.906Z,1011.11
2023-06-19T00:29:59.085Z,1011.12
2023-06-19T00:30:15.224Z,1011.18
2023-06-19T00:30:31.338Z,1011.15
2023-06-19T00:30:47.506Z,1011.14
2023-06-19T00:31:03.651Z,1011.17
2023-06-19T00:31:19.881Z,1011.18
2023-06-19T00:31:35.921Z,1011.17
2023-06-19T00:31:52.070Z,1011.18
2023-06-19T00:32:08.222Z,1011.15
2023-06-19T00:32:24.395Z,1011.18
2023-06-19T00:32:40.568Z,1011.21
2023-06-19T00:32:56.759Z,1011.18
2023-06-19T00:33:12.819Z,1011.18
2023-06-19T00:33:28.959Z,1011.15
2023-06-19T00:33:45.114Z,1011.16
2023-06-19T00:34:01.257Z,1011.2
2023-06-19T00:34:17.384Z,1011.19
2023-06-19T00:34:33.534Z,1011.14
2023-06-19T00:34:49.676Z,1011.16
2023-06-19T00:35:05.814Z,1011.17
2023-06-19T00:35:22.003Z,1011.19
2023-06-19T00:35:38.120Z,1011.22
2023-06-19T00:35:54.269Z,1011.2
2023-06-19T00:36:10.406Z,1011.18
2023-06-19T00:36:26.562Z,1011.18
2023-06-19T00:36:42.703Z,1011.22
2023-06-19T00:36:58.846Z,1011.21
2023-06-19T00:37:15.013Z,1011.22
2023-06-19T00:37:31.140Z,1011.2
2023-06-19T00:37:47.282Z,1011.19
2023-06-19T00:38:14.723Z,1011.21
2023-06-19T00:38:30.850Z,1011.19
2023-06-19T00:38:47.005Z,1011.19
2023-06-19T00:39:03.167Z,1011.19
2023-06-19T00:39:19.306Z,1011.18
2023-06-19T00:39:35.437Z,1011.2
2023-06-19T00:39:51.583Z,1011.21
2023-06-19T00:40:07.716Z,1011.19
2023-06-19T00:40:24.170Z,1011.21
2023-06-19T00:40:40.033Z,1011.23
2023-06-19T00:40:56.173Z,1011.24
2023-06-19T00:41:12.305Z,1011.17
2023-06-19T00:41:28.450Z,1011.18
2023-06-19T00:41:44.598Z,1011.21
2023-06-19T00:42:00.745Z,1011.19
2023-06-19T00:42:16.870Z,1011.19
2023-06-19T00:42:33.040Z,1011.2
2023-06-19T00:42:49.188Z,1011.23
2023-06-19T00:43:05.327Z,1011.2
2023-06-19T00:43:21.494Z,1011.2
2023-06-19T00:43:37.642Z,1011.19
2023-06-19T00:43:53.781Z,1011.22
2023-06-19T00:44:09.903Z,1011.19
2023-06-19T00:44:26.059Z,1011.19
2023-06-19T00:44:42.199Z,1011.22
2023-06-19T00:44:58.351Z,1011.19
2023-06-19T00:45:14.504Z,1011.22
2023-06-19T00:45:30.693Z,1011.23
2023-06-19T00:45:46.844Z,1011.19
2023-06-19T00:46:03.044Z,1011.2
2023-06-19T00:46:19.174Z,1011.18
2023-06-19T00:46:35.244Z,1011.16
2023-06-19T00:46:51.374Z,1011.2
2023-06-19T00:47:07.554Z,1011.17
2023-06-19T00:47:23.700Z,1011.18
2023-06-19T00:47:39.850Z,1011.19
2023-06-19T00:47:55.998Z,1011.2
2023-06-19T00:48:12.083Z,1011.21
2023-06-19T00:48:28.254Z,1011.16
2023-06-19T00:48:44.416Z,1011.14
2023-06-19T00:49:00.580Z,1011.15
2023-06-19T00:49:16.685Z,1011.17
2023-06-19T00:49:32.834Z,1011.16
2023-06-19T00:49:48.962Z,1011.16
2023-06-19T00:50:05.119Z,1011.13
2023-06-19T00:50:21.527Z,1011.11
2023-06-19T00:50:37.413Z,1011.13
2023-06-19T00:50:53.562Z,1011.16
2023-06-19T00:51:09.705Z,1011.16
2023-06-19T00:51:25.842Z,1011.11
2023-06-19T00:51:41.978Z,1011.16
2023-06-19T00:51:58.120Z,1011.12
2023-06-19T00:52:14.264Z,1011.1
2023-06-19T00:52:30.417Z,1011.12
2023-06-19T00:52:46.593Z,1011.1
2023-06-19T00:53:02.699Z,1011.11
2023-06-19T00:53:18.854Z,1011.11
2023-06-19T00:53:34.991Z,1011.1
2023-06-19T00:53:51.170Z,1011.09
2023-06-19T00:54:07.305Z,1011.12
2023-06-19T00:54:23.464Z,1011.12
2023-06-19T00:54:39.577Z,1011.11
2023-06-19T00:54:55.743Z,1011.09
2023-06-19T00:55:11.901Z,1011.13
2023-06-19T00:55:28.037Z,1011.11
2023-06-19T00:55:44.160Z,1011.1
2023-06-19T00:56:00.311Z,1011.09
2023-06-19T00:56:16.383Z,1011.09
2023-06-19T00:56:32.640Z,1011.11
2023-06-19T00:56:48.729Z,1011.08
2023-06-19T00:57:04.904Z,1011.1
2023-06-19T00:57:21.042Z,1011.12
2023-06-19T00:57:37.216Z,1011.07
2023-06-19T00:57:53.317Z,1011.07
2023-06-19T00:58:09.481Z,1011.1
2023-06-19T00:58:25.668Z,1011.11
2023-06-19T00:58:41.760Z,1011.12
2023-06-19T00:58:57.908Z,1011.06
2023-06-19T00:59:14.052Z,1011.09
2023-06-19T00:59:30.223Z,1011.07
2023-06-19T00:59:46.335Z,1011.08
2023-06-19T01:00:02.498Z,1011.09
2023-06-19T01:00:18.656Z,1011.05
2023-06-19T01:00:34.784Z,1011.1
2023-06-19T01:01:03.692Z,1011.04
2023-06-19T01:01:09.357Z,1011.08
2023-06-19T01:01:23.278Z,1011.06
2023-06-19T01:01:39.503Z,1011.1
2023-06-19T01:01:55.583Z,1011.07
2023-06-19T01:02:11.854Z,1011.06
2023-06-19T01:02:27.909Z,1011.06
2023-06-19T01:02:44.069Z,1011.06
2023-06-19T01:03:00.516Z,1011.06
2023-06-19T01:03:18.617Z,1011.08
2023-06-19T01:03:32.474Z,1011.11
2023-06-19T01:03:48.705Z,1011.09
2023-06-19T01:04:04.861Z,1011.08
2023-06-19T01:04:20.924Z,1011.06
2023-06-19T01:04:37.022Z,1011.05
2023-06-19T01:04:53.197Z,1011.05
2023-06-19T01:05:09.290Z,1011.07
2023-06-19T01:05:25.324Z,1011.08
2023-06-19T01:05:41.567Z,1011.08
2023-06-19T01:05:57.741Z,1011.09
2023-06-19T01:06:13.837Z,1011.07
2023-06-19T01:06:30.026Z,1011.06
2023-06-19T01:06:46.146Z,1011.04
2023-06-19T01:07:02.275Z,1011.08
2023-06-19T01:07:18.442Z,1011.03
2023-06-19T01:07:34.577Z,1011.08
2023-06-19T01:07:50.722Z,1011.04
2023-06-19T01:08:06.874Z,1011.05
2023-06-19T01:08:23.024Z,1011.04
2023-06-19T01:08:39.177Z,1011.08
2023-06-19T01:08:55.309Z,1011.06
2023-06-19T01:09:11.451Z,1011.04
2023-06-19T01:09:27.598Z,1011.03
2023-06-19T01:09:43.742Z,1011.04
2023-06-19T01:09:59.904Z,1011.03
2023-06-19T01:10:16.035Z,1011.02
2023-06-19T01:10:32.174Z,1011.03
2023-06-19T01:10:48.324Z,1011.04
2023-06-19T01:11:11.710Z,1011.06
2023-06-19T01:11:26.831Z,1011.01
2023-06-19T01:11:36.801Z,1011.05
2023-06-19T01:11:52.909Z,1011.02
2023-06-19T01:12:09.059Z,1011.01
2023-06-19T01:12:25.189Z,1011.04
2023-06-19T01:12:41.343Z,1011.04
2023-06-19T01:12:57.483Z,1011.08
2023-06-19T01:13:13.665Z,1010.99
2023-06-19T01:13:29.789Z,1011.06
2023-06-19T01:13:45.918Z,1011.07
2023-06-19T01:14:02.077Z,1011.03
2023-06-19T01:14:18.229Z,1011.05
2023-06-19T01:14:34.365Z,1011.04
2023-06-19T01:14:50.517Z,1011.03
2023-06-19T01:15:06.666Z,1010.98
2023-06-19T01:15:22.799Z,1011
2023-06-19T01:15:38.979Z,1011.03
2023-06-19T01:15:55.103Z,1011.05
2023-06-19T01:16:11.250Z,1011.04
2023-06-19T01:16:27.443Z,1011.02
2023-06-19T01:16:43.604Z,1011.05
2023-06-19T01:16:59.754Z,1011.02
2023-06-19T01:17:15.841Z,1011
2023-06-19T01:17:32.019Z,1011.02
2023-06-19T01:17:48.200Z,1011.03
2023-06-19T01:18:04.350Z,1011.03
2023-06-19T01:18:20.430Z,1011
2023-06-19T01:18:36.562Z,1011.04
2023-06-19T01:18:52.621Z,1011.04
2023-06-19T01:19:08.832Z,1011.03
2023-06-19T01:19:24.967Z,1010.98
2023-06-19T01:19:41.111Z,1010.99
2023-06-19T01:19:57.268Z,1011.02
2023-06-19T01:20:13.410Z,1010.98
2023-06-19T01:20:29.612Z,1010.97
2023-06-19T01:20:45.705Z,1010.99
2023-06-19T01:21:01.868Z,1010.94
2023-06-19T01:21:18.002Z,1010.97
2023-06-19T01:21:34.157Z,1011
2023-06-19T01:21:50.290Z,1011
2023-06-19T01:22:06.468Z,1011
2023-06-19T01:22:22.580Z,1010.98
2023-06-19T01:22:38.725Z,1010.98
2023-06-19T01:22:54.885Z,1010.96
2023-06-19T01:23:11.053Z,1010.97
2023-06-19T01:23:27.298Z,1010.99
2023-06-19T01:23:43.322Z,1010.99
2023-06-19T01:23:59.501Z,1011.01
2023-06-19T01:24:15.621Z,1011.01
2023-06-19T01:24:31.816Z,1010.98
2023-06-19T01:24:47.898Z,1010.95
2023-06-19T01:25:04.070Z,1010.96
2023-06-19T01:25:20.210Z,1010.94
2023-06-19T01:25:36.343Z,1010.95
2023-06-19T01:25:52.472Z,1010.96
2023-06-19T01:26:08.618Z,1010.96
2023-06-19T01:26:24.755Z,1010.99
2023-06-19T01:26:40.895Z,1010.97
2023-06-19T01:26:57.078Z,1011
2023-06-19T01:27:13.239Z,1011.03
2023-06-19T01:27:29.344Z,1011.03
2023-06-19T01:27:45.484Z,1011.02
2023-06-19T01:28:01.647Z,1010.97
2023-06-19T01:28:17.795Z,1010.99
2023-06-19T01:28:33.958Z,1011.03
2023-06-19T01:28:50.095Z,1010.99
2023-06-19T01:29:06.223Z,1010.98
2023-06-19T01:29:22.391Z,1010.96
2023-06-19T01:29:38.516Z,1010.98
2023-06-19T01:29:54.653Z,1011
2023-06-19T01:30:10.797Z,1011.01
2023-06-19T01:30:26.991Z,1011
2023-06-19T01:30:43.087Z,1011.01
2023-06-19T01:30:59.240Z,1010.99
2023-06-19T01:31:15.383Z,1010.98
2023-06-19T01:31:31.562Z,1010.99
2023-06-19T01:31:47.677Z,1011.01
2023-06-19T01:32:15.137Z,1010.98
2023-06-19T01:32:31.326Z,1011.01
2023-06-19T01:32:47.486Z,1011.01
2023-06-19T01:33:03.628Z,1010.97
2023-06-19T01:33:19.699Z,1010.99
2023-06-19T01:33:35.846Z,1010.98
2023-06-19T01:33:51.971Z,1010.95
2023-06-19T01:34:08.168Z,1010.97
2023-06-19T01:34:24.285Z,1010.96
2023-06-19T01:34:41.379Z,1010.95
2023-06-19T01:34:56.565Z,1011.01
2023-06-19T01:35:12.715Z,1010.95
2023-06-19T01:35:28.862Z,1010.93
2023-06-19T01:35:45.016Z,1010.95
2023-06-19T01:36:01.143Z,1010.95
2023-06-19T01:36:17.299Z,1010.92
2023-06-19T01:36:33.428Z,1010.92
2023-06-19T01:36:49.577Z,1010.93
2023-06-19T01:37:05.726Z,1010.9
2023-06-19T01:37:21.879Z,1010.87
2023-06-19T01:37:38.041Z,1010.91
2023-06-19T01:37:54.237Z,1010.9
2023-06-19T01:38:10.312Z,1010.89
2023-06-19T01:38:26.772Z,1010.88
2023-06-19T01:38:42.602Z,1010.89
2023-06-19T01:38:58.784Z,1010.85
2023-06-19T01:39:14.895Z,1010.87
2023-06-19T01:39:31.034Z,1010.88
2023-06-19T01:39:47.202Z,1010.89
2023-06-19T01:40:03.347Z,1010.79
2023-06-19T01:40:19.524Z,1010.86
2023-06-19T01:40:35.668Z,1010.82
2023-06-19T01:40:51.817Z,1010.82
2023-06-19T01:41:07.946Z,1010.8
2023-06-19T01:41:24.049Z,1010.79
2023-06-19T01:41:40.213Z,1010.83
2023-06-19T01:41:56.344Z,1010.81
2023-06-19T01:42:12.495Z,1010.8
2023-06-19T01:42:28.643Z,1010.79
2023-06-19T01:42:44.785Z,1010.79
2023-06-19T01:43:00.918Z,1010.77
2023-06-19T01:43:17.108Z,1010.78
2023-06-19T01:43:33.245Z,1010.74
2023-06-19T01:43:49.389Z,1010.76
2023-06-19T01:44:05.505Z,1010.75
2023-06-19T01:44:21.671Z,1010.75
2023-06-19T01:44:37.803Z,1010.75
2023-06-19T01:44:53.946Z,1010.72
2023-06-19T01:45:10.132Z,1010.73
2023-06-19T01:45:26.243Z,1010.72
2023-06-19T01:45:42.383Z,1010.7
2023-06-19T01:45:58.564Z,1010.74
2023-06-19T01:46:14.750Z,1010.73
2023-06-19T01:46:30.991Z,1010.74
2023-06-19T01:46:47.070Z,1010.71
2023-06-19T01:47:03.114Z,1010.73
2023-06-19T01:47:19.250Z,1010.76
2023-06-19T01:47:35.499Z,1010.71
2023-06-19T01:47:51.568Z,1010.7
2023-06-19T01:48:07.775Z,1010.74
2023-06-19T01:48:23.860Z,1010.71
2023-06-19T01:48:39.991Z,1010.72
2023-06-19T01:48:56.165Z,1010.66
2023-06-19T01:49:12.309Z,1010.7
2023-06-19T01:49:28.413Z,1010.75
2023-06-19T01:49:44.592Z,1010.72
2023-06-19T01:50:00.739Z,1010.66
2023-06-19T01:50:16.862Z,1010.66
2023-06-19T01:50:33.012Z,1010.68
2023-06-19T01:50:49.140Z,1010.65
2023-06-19T01:51:05.288Z,1010.66
2023-06-19T01:51:21.434Z,1010.65
2023-06-19T01:51:37.652Z,1010.66
2023-06-19T01:51:53.733Z,1010.67
2023-06-19T01:52:09.950Z,1010.67
2023-06-19T01:52:26.030Z,1010.65
2023-06-19T01:52:42.184Z,1010.69
2023-06-19T01:52:58.330Z,1010.69
2023-06-19T01:53:14.454Z,1010.66
2023-06-19T01:53:30.613Z,1010.67
2023-06-19T01:53:46.779Z,1010.67
2023-06-19T01:54:02.917Z,1010.62
2023-06-19T01:54:19.039Z,1010.62
2023-06-19T01:54:35.232Z,1010.66
2023-06-19T01:54:51.331Z,1010.65
2023-06-19T01:55:07.549Z,1010.67
2023-06-19T01:55:23.637Z,1010.67
2023-06-19T01:55:39.834Z,1010.65
2023-06-19T01:55:55.966Z,1010.66
2023-06-19T01:56:12.078Z,1010.65
2023-06-19T01:56:28.204Z,1010.64
2023-06-19T01:56:44.357Z,1010.66
2023-06-19T01:57:00.516Z,1010.64
2023-06-19T01:57:16.656Z,1010.65
2023-06-19T01:57:32.785Z,1010.62
2023-06-19T01:57:48.990Z,1010.63
2023-06-19T01:58:05.098Z,1010.65
2023-06-19T01:58:21.241Z,1010.6
2023-06-19T01:58:37.379Z,1010.66
2023-06-19T01:58:53.520Z,1010.62
2023-06-19T01:59:09.679Z,1010.61
2023-06-19T01:59:25.819Z,1010.61
2023-06-19T01:59:41.966Z,1010.62
2023-06-19T01:59:58.092Z,1010.64
2023-06-19T02:00:14.237Z,1010.57
2023-06-19T02:00:30.444Z,1010.62
2023-06-19T02:00:46.513Z,1010.62
2023-06-19T02:01:02.713Z,1010.6
2023-06-19T02:01:18.828Z,1010.59
2023-06-19T02:01:34.974Z,1010.58
2023-06-19T02:01:51.288Z,1010.62
2023-06-19T02:02:07.267Z,1010.64
2023-06-19T02:02:23.457Z,1010.6
2023-06-19T02:02:39.600Z,1010.62
2023-06-19T02:02:55.784Z,1010.61
2023-06-19T02:03:11.919Z,1010.59
2023-06-19T02:03:28.072Z,1010.61
2023-06-19T02:03:44.214Z,1010.59
2023-06-19T02:04:00.403Z,1010.58
2023-06-19T02:04:16.432Z,1010.59
2023-06-19T02:04:32.580Z,1010.6
2023-06-19T02:04:48.739Z,1010.6
2023-06-19T02:05:04.854Z,1010.58
2023-06-19T02:05:20.999Z,1010.58
2023-06-19T02:05:37.156Z,1010.59
2023-06-19T02:05:53.310Z,1010.57
2023-06-19T02:06:09.475Z,1010.56
2023-06-19T02:06:25.576Z,1010.55
2023-06-19T02:06:41.739Z,1010.57
2023-06-19T02:06:57.887Z,1010.59
2023-06-19T02:07:14.027Z,1010.58
2023-06-19T02:07:30.193Z,1010.59
2023-06-19T02:07:46.327Z,1010.58
2023-06-19T02:08:02.460Z,1010.56
2023-06-19T02:08:18.613Z,1010.54
2023-06-19T02:08:34.759Z,1010.58
2023-06-19T02:08:50.886Z,1010.55
2023-06-19T02:09:07.053Z,1010.58
2023-06-19T02:09:23.215Z,1010.54
2023-06-19T02:09:39.360Z,1010.55
2023-06-19T02:09:55.469Z,1010.54
2023-06-19T02:10:11.632Z,1010.52
2023-06-19T02:10:27.782Z,1010.51
2023-06-19T02:10:43.924Z,1010.54
2023-06-19T02:11:00.127Z,1010.5
2023-06-19T02:11:16.238Z,1010.49
2023-06-19T02:11:32.360Z,1010.5
2023-06-19T02:11:48.556Z,1010.54
2023-06-19T02:12:04.647Z,1010.51
2023-06-19T02:12:20.795Z,1010.53
2023-06-19T02:12:37.166Z,1010.52
2023-06-19T02:12:53.089Z,1010.48
2023-06-19T02:13:09.234Z,1010.5
2023-06-19T02:13:25.372Z,1010.51
2023-06-19T02:13:41.520Z,1010.49
2023-06-19T02:13:57.659Z,1010.47
2023-06-19T02:14:13.851Z,1010.48
2023-06-19T02:14:29.955Z,1010.48
2023-06-19T02:14:46.158Z,1010.47
2023-06-19T02:15:02.265Z,1010.47
2023-06-19T02:15:18.404Z,1010.51
2023-06-19T02:15:34.546Z,1010.49
2023-06-19T02:15:50.704Z,1010.5
2023-06-19T02:16:06.855Z,1010.46
2023-06-19T02:16:23.042Z,1010.46
2023-06-19T02:16:39.161Z,1010.44
2023-06-19T02:16:55.280Z,1010.43
2023-06-19T02:17:11.421Z,1010.39
2023-06-19T02:17:27.608Z,1010.42
2023-06-19T02:17:43.852Z,1010.43
2023-06-19T02:17:59.867Z,1010.42
2023-06-19T02:18:16.076Z,1010.47
2023-06-19T02:18:32.137Z,1010.45
2023-06-19T02:18:48.281Z,1010.38
2023-06-19T02:19:04.439Z,1010.41
2023-06-19T02:19:20.603Z,1010.41
2023-06-19T02:19:36.724Z,1010.41
2023-06-19T02:19:52.867Z,1010.39
2023-06-19T02:20:09.028Z,1010.4
2023-06-19T02:20:25.357Z,1010.39
2023-06-19T02:20:41.298Z,1010.41
2023-06-19T02:20:57.477Z,1010.37
2023-06-19T02:21:14.781Z,1010.37
2023-06-19T02:21:29.780Z,1010.37
2023-06-19T02:21:45.925Z,1010.39
2023-06-19T02:22:02.027Z,1010.39
2023-06-19T02:22:18.166Z,1010.4
2023-06-19T02:22:34.328Z,1010.38
2023-06-19T02:22:50.478Z,1010.36
2023-06-19T02:23:06.627Z,1010.37
2023-06-19T02:23:22.762Z,1010.35
2023-06-19T02:23:38.938Z,1010.42
2023-06-19T02:23:55.095Z,1010.38
2023-06-19T02:24:11.219Z,1010.38
2023-06-19T02:24:27.357Z,1010.4
2023-06-19T02:24:43.565Z,1010.41
2023-06-19T02:24:59.734Z,1010.43
2023-06-19T02:25:15.787Z,1010.41
2023-06-19T02:25:31.930Z,1010.43
2023-06-19T02:25:48.069Z,1010.42
2023-06-19T02:26:15.513Z,1010.4
2023-06-19T02:26:31.660Z,1010.4
2023-06-19T02:26:47.787Z,1010.42
2023-06-19T02:27:03.954Z,1010.44
2023-06-19T02:27:20.143Z,1010.43
2023-06-19T02:27:36.231Z,1010.42
2023-06-19T02:27:52.380Z,1010.42
2023-06-19T02:28:08.540Z,1010.46
2023-06-19T02:28:24.678Z,1010.42
2023-06-19T02:28:40.813Z,1010.4
2023-06-19T02:28:56.955Z,1010.4
2023-06-19T02:29:13.117Z,1010.43
2023-06-19T02:29:29.234Z,1010.41
2023-06-19T02:29:45.380Z,1010.41
2023-06-19T02:30:01.547Z,1010.42
2023-06-19T02:30:17.718Z,1010.38
2023-06-19T02:30:33.842Z,1010.41
2023-06-19T02:30:50.020Z,1010.38
2023-06-19T02:31:06.108Z,1010.45
2023-06-19T02:31:22.282Z,1010.43
2023-06-19T02:31:38.411Z,1010.41
2023-06-19T02:31:54.563Z,1010.39
2023-06-19T02:32:10.752Z,1010.39
2023-06-19T02:32:26.941Z,1010.41
2023-06-19T02:32:43.064Z,1010.44
2023-06-19T02:32:59.254Z,1010.45
2023-06-19T02:33:15.314Z,1010.4
2023-06-19T02:33:31.426Z,1010.43
2023-06-19T02:33:47.606Z,1010.43
2023-06-19T02:34:03.723Z,1010.39
2023-06-19T02:34:19.857Z,1010.43
2023-06-19T02:34:35.999Z,1010.39
2023-06-19T02:34:52.146Z,1010.38
2023-06-19T02:35:08.299Z,1010.36
2023-06-19T02:35:24.475Z,1010.39
2023-06-19T02:35:40.621Z,1010.39
2023-06-19T02:35:56.741Z,1010.4
2023-06-19T02:36:12.895Z,1010.37
2023-06-19T02:36:28.950Z,1010.37
2023-06-19T02:36:45.172Z,1010.35
2023-06-19T02:37:01.317Z,1010.35
2023-06-19T02:37:17.479Z,1010.35
2023-06-19T02:37:33.626Z,1010.32
2023-06-19T02:37:49.746Z,1010.39
2023-06-19T02:38:05.901Z,1010.33
2023-06-19T02:38:22.037Z,1010.34
2023-06-19T02:38:38.189Z,1010.35
2023-06-19T02:38:54.372Z,1010.31
2023-06-19T02:39:10.483Z,1010.35
2023-06-19T02:39:26.665Z,1010.32
2023-06-19T02:39:42.774Z,1010.32
2023-06-19T02:39:58.950Z,1010.31
2023-06-19T02:40:15.094Z,1010.31
2023-06-19T02:40:31.265Z,1010.33
2023-06-19T02:40:47.362Z,1010.32
2023-06-19T02:41:03.491Z,1010.31
2023-06-19T02:41:19.652Z,1010.29
2023-06-19T02:41:35.774Z,1010.33
2023-06-19T02:41:51.945Z,1010.31
2023-06-19T02:42:08.120Z,1010.29
2023-06-19T02:42:24.287Z,1010.29
2023-06-19T02:42:40.363Z,1010.31
2023-06-19T02:42:56.553Z,1010.27
2023-06-19T02:43:12.659Z,1010.31
2023-06-19T02:43:28.832Z,1010.33
2023-06-19T02:43:44.964Z,1010.31
2023-06-19T02:44:01.112Z,1010.32
2023-06-19T02:44:17.260Z,1010.27
2023-06-19T02:44:33.393Z,1010.31
2023-06-19T02:44:49.571Z,1010.3
2023-06-19T02:45:05.694Z,1010.34
2023-06-19T02:45:21.848Z,1010.3
2023-06-19T02:45:38.032Z,1010.3
2023-06-19T02:45:54.172Z,1010.36
2023-06-19T02:46:13.109Z,1010.31
2023-06-19T02:46:26.454Z,1010.36
2023-06-19T02:46:42.581Z,1010.33
2023-06-19T02:46:58.739Z,1010.36
2023-06-19T02:47:14.891Z,1010.36
2023-06-19T02:47:31.069Z,1010.36
2023-06-19T02:47:47.192Z,1010.32
2023-06-19T02:48:03.367Z,1010.34
2023-06-19T02:48:19.424Z,1010.31
2023-06-19T02:48:35.594Z,1010.34
2023-06-19T02:48:51.744Z,1010.29
2023-06-19T02:49:07.877Z,1010.35
2023-06-19T02:49:24.030Z,1010.32
2023-06-19T02:49:40.176Z,1010.35
2023-06-19T02:49:56.348Z,1010.33
2023-06-19T02:50:12.456Z,1010.36
2023-06-19T02:50:28.610Z,1010.35
2023-06-19T02:50:44.731Z,1010.35
2023-06-19T02:51:00.926Z,1010.36
2023-06-19T02:51:17.034Z,1010.34
2023-06-19T02:51:33.179Z,1010.33
2023-06-19T02:51:49.318Z,1010.35
2023-06-19T02:52:05.464Z,1010.36
2023-06-19T02:52:21.605Z,1010.35
2023-06-19T02:52:37.775Z,1010.39
2023-06-19T02:52:53.924Z,1010.38
2023-06-19T02:53:10.098Z,1010.35
2023-06-19T02:53:26.210Z,1010.35
2023-06-19T02:53:42.331Z,1010.36
2023-06-19T02:53:58.486Z,1010.34
2023-06-19T02:54:14.632Z,1010.35
2023-06-19T02:54:30.788Z,1010.36
2023-06-19T02:54:46.937Z,1010.39
2023-06-19T02:55:02.984Z,1010.35
2023-06-19T02:55:19.211Z,1010.39
2023-06-19T02:55:35.373Z,1010.39
2023-06-19T02:55:51.506Z,1010.35
2023-06-19T02:56:07.704Z,1010.38
2023-06-19T02:56:23.793Z,1010.34
2023-06-19T02:56:39.965Z,1010.37
2023-06-19T02:56:56.117Z,1010.34
2023-06-19T02:57:12.246Z,1010.34
2023-06-19T02:57:28.403Z,1010.36
2023-06-19T02:57:44.527Z,1010.36
2023-06-19T02:58:00.697Z,1010.38
2023-06-19T02:58:16.829Z,1010.31
2023-06-19T02:58:32.963Z,1010.33
2023-06-19T02:58:49.115Z,1010.37
2023-06-19T02:59:05.269Z,1010.36
2023-06-19T02:59:21.420Z,1010.37
2023-06-19T02:59:37.543Z,1010.35
2023-06-19T02:59:53.710Z,1010.33
2023-06-19T03:00:09.834Z,1010.36
2023-06-19T03:00:26.495Z,1010.4
2023-06-19T03:00:42.144Z,1010.38
2023-06-19T03:00:58.328Z,1010.36
2023-06-19T03:01:14.482Z,1010.39
2023-06-19T03:01:30.634Z,1010.41
2023-06-19T03:01:46.732Z,1010.37
2023-06-19T03:02:02.851Z,1010.4
2023-06-19T03:02:19.296Z,1010.4
2023-06-19T03:02:35.281Z,1010.38
2023-06-19T03:02:51.349Z,1010.4
2023-06-19T03:03:07.518Z,1010.42
2023-06-19T03:03:23.676Z,1010.42
2023-06-19T03:03:40.020Z,1010.37
2023-06-19T03:03:55.886Z,1010.42
2023-06-19T03:04:12.037Z,1010.39
2023-06-19T03:04:29.603Z,1010.39
2023-06-19T03:04:44.314Z,1010.4
2023-06-19T03:05:00.475Z,1010.41
2023-06-19T03:05:16.610Z,1010.43
2023-06-19T03:05:32.747Z,1010.44
2023-06-19T03:05:48.882Z,1010.43
2023-06-19T03:06:05.032Z,1010.42
2023-06-19T03:06:21.200Z,1010.43
2023-06-19T03:06:37.346Z,1010.45
2023-06-19T03:06:53.480Z,1010.44
2023-06-19T03:07:09.624Z,1010.44
2023-06-19T03:07:25.773Z,1010.44
2023-06-19T03:07:41.943Z,1010.45
2023-06-19T03:07:58.049Z,1010.44
2023-06-19T03:08:14.218Z,1010.45
2023-06-19T03:08:30.400Z,1010.42
2023-06-19T03:08:46.499Z,1010.41
2023-06-19T03:09:02.657Z,1010.41
2023-06-19T03:09:18.776Z,1010.44
2023-06-19T03:09:34.946Z,1010.46
2023-06-19T03:09:51.111Z,1010.44
2023-06-19T03:10:07.216Z,1010.47
2023-06-19T03:10:23.773Z,1010.46
2023-06-19T03:10:39.513Z,1010.44
2023-06-19T03:10:55.658Z,1010.46
2023-06-19T03:11:11.802Z,1010.43
2023-06-19T03:11:27.943Z,1010.5
2023-06-19T03:11:44.093Z,1010.48
2023-06-19T03:12:00.264Z,1010.47
2023-06-19T03:12:16.407Z,1010.43
2023-06-19T03:12:32.532Z,1010.46
2023-06-19T03:12:48.681Z,1010.47
2023-06-19T03:13:04.867Z,1010.44
2023-06-19T03:13:20.965Z,1010.45
2023-06-19T03:13:37.108Z,1010.5
2023-06-19T03:13:53.293Z,1010.54
2023-06-19T03:14:09.404Z,1010.49
2023-06-19T03:14:25.553Z,1010.49
2023-06-19T03:14:41.698Z,1010.51
2023-06-19T03:14:57.840Z,1010.51
2023-06-19T03:15:13.974Z,1010.5
2023-06-19T03:15:30.140Z,1010.53
2023-06-19T03:15:46.272Z,1010.53
2023-06-19T03:16:02.437Z,1010.51
2023-06-19T03:16:18.586Z,1010.51
2023-06-19T03:16:34.739Z,1010.54